Time;durP1;ratioP1;P1;durP2;ratioP2;P2;SDS_P1;SDS_P2;PMS_P1;PMS_P2;Temp;Humidity;BMP_temperature;BMP_pressure;BME280_temperature;BME280_humidity;BME280_pressure;Samples;Min_cycle;Max_cycle;Signal;HPM_P1;HPM_P2
2021/03/01 00:00:24;;;;;;;43.20;20.48;;;;;;;0.79;89.98;98557.84;4981669;28;20503;-82
2021/03/01 00:02:50;;;;;;;47.08;20.40;;;;;;;0.88;89.19;98555.13;4966929;28;20027;-82
2021/03/01 00:05:16;;;;;;;51.97;22.33;;;;;;;0.88;88.47;98555.13;4990420;28;20038;-81
2021/03/01 00:07:42;;;;;;;45.22;21.30;;;;;;;0.69;89.68;98555.25;4990104;28;20489;-82
2021/03/01 00:10:08;;;;;;;46.03;21.52;;;;;;;0.79;89.09;98549.94;4976038;28;20065;-82
2021/03/01 00:12:34;;;;;;;42.55;21.23;;;;;;;0.82;89.23;98547.28;4954737;28;20069;-81
2021/03/01 00:15:00;;;;;;;45.70;21.83;;;;;;;0.74;89.36;98543.81;5000313;28;20054;-82
2021/03/01 00:17:26;;;;;;;51.60;22.63;;;;;;;0.66;90.01;98553.53;4974545;28;20034;-75
2021/03/01 00:19:51;;;;;;;53.15;22.02;;;;;;;0.54;90.71;98551.84;4990361;28;20038;-83
2021/03/01 00:22:17;;;;;;;43.03;21.52;;;;;;;0.48;90.52;98533.47;4973875;28;20110;-83
2021/03/01 00:24:43;;;;;;;44.13;20.73;;;;;;;0.46;91.65;98545.75;4985537;28;20038;-83
2021/03/01 00:27:09;;;;;;;40.40;18.80;;;;;;;0.50;89.48;98525.56;4990826;28;20433;-83
2021/03/01 00:29:34;;;;;;;46.60;20.20;;;;;;;0.47;88.73;98526.47;4967993;28;20041;-83
2021/03/01 00:32:00;;;;;;;42.65;20.52;;;;;;;0.57;89.32;98532.53;4972871;28;20050;-83
2021/03/01 00:34:25;;;;;;;39.10;19.00;;;;;;;0.58;89.93;98525.53;4990444;28;20109;-83
2021/03/01 00:36:51;;;;;;;47.72;19.48;;;;;;;0.61;90.15;98529.00;4993681;28;20030;-83
2021/03/01 00:39:17;;;;;;;43.58;21.20;;;;;;;0.60;89.55;98524.63;4990402;28;20031;-83
2021/03/01 00:41:42;;;;;;;37.05;17.77;;;;;;;0.58;89.67;98529.03;4992884;28;20402;-83
2021/03/01 00:44:08;;;;;;;42.20;18.73;;;;;;;0.49;89.98;98521.19;4993682;28;20045;-83
2021/03/01 00:46:34;;;;;;;41.17;19.25;;;;;;;0.57;89.48;98515.88;4977078;28;20383;-83
2021/03/01 00:48:59;;;;;;;48.03;22.30;;;;;;;0.52;89.51;98513.28;4993601;28;20058;-82
2021/03/01 00:51:25;;;;;;;44.03;20.23;;;;;;;0.55;90.33;98513.25;4952707;28;20028;-83
2021/03/01 00:53:50;;;;;;;43.03;21.33;;;;;;;0.53;89.85;98515.00;4974089;28;20062;-83
2021/03/01 00:56:16;;;;;;;49.10;22.00;;;;;;;0.37;90.90;98514.22;4973981;28;20058;-83
2021/03/01 00:58:41;;;;;;;58.97;25.75;;;;;;;0.49;89.98;98513.31;4973760;28;20034;-83
2021/03/01 01:01:07;;;;;;;55.20;25.02;;;;;;;0.59;89.99;98500.94;4970973;28;20031;-83
2021/03/01 01:03:33;;;;;;;51.25;23.60;;;;;;;0.39;90.09;98486.16;4992555;28;20478;-83
2021/03/01 01:05:59;;;;;;;48.15;22.25;;;;;;;0.41;90.45;98500.19;4957158;28;20030;-83
2021/03/01 01:08:24;;;;;;;39.92;20.17;;;;;;;0.40;90.72;98498.44;4973626;28;20469;-83
2021/03/01 01:10:50;;;;;;;43.80;19.85;;;;;;;0.56;90.24;98504.47;4957271;28;20085;-83
2021/03/01 01:13:16;;;;;;;47.25;20.05;;;;;;;0.32;89.55;98500.25;4957268;28;20430;-84
2021/03/01 01:15:41;;;;;;;39.97;18.23;;;;;;;0.11;90.03;98494.22;4966820;28;20031;-82
2021/03/01 01:18:07;;;;;;;45.97;16.45;;;;;;;0.22;88.95;98495.03;4976406;28;20477;-83
2021/03/01 01:20:33;;;;;;;35.13;15.00;;;;;;;0.21;89.97;98493.31;4992142;28;20030;-83
2021/03/01 01:22:59;;;;;;;37.63;15.85;;;;;;;0.21;89.64;98498.56;4992620;28;20046;-83
2021/03/01 01:25:24;;;;;;;35.40;15.65;;;;;;;0.14;90.39;98496.84;4986063;28;20494;-83
2021/03/01 01:27:50;;;;;;;39.97;14.82;;;;;;;0.11;90.89;98489.84;4959133;28;20031;-83
2021/03/01 01:30:20;;;;;;;31.50;14.48;;;;;;;0.05;90.54;98489.00;4986763;28;20122;-83
2021/03/01 01:32:45;;;;;;;41.95;16.15;;;;;;;0.04;91.94;98492.50;4990090;28;20041;-83
2021/03/01 01:35:12;;;;;;;38.42;15.63;;;;;;;-0.13;92.47;98484.72;4988390;28;20023;-83
2021/03/01 01:37:39;;;;;;;29.70;13.85;;;;;;;-0.22;92.73;98482.13;4973040;28;20026;-82
2021/03/01 01:40:07;;;;;;;28.35;14.35;;;;;;;-0.01;92.11;98482.03;4988702;28;20034;-83
2021/03/01 01:42:32;;;;;;;35.03;15.65;;;;;;;-0.25;92.56;98469.00;4972127;28;20019;-83
2021/03/01 01:44:59;;;;;;;30.00;13.40;;;;;;;-0.09;93.31;98487.31;4991919;28;20034;-82
2021/03/01 01:47:24;;;;;;;30.95;14.32;;;;;;;-0.09;92.29;98483.81;4985805;28;20023;-83
2021/03/01 01:49:50;;;;;;;33.13;15.32;;;;;;;-0.16;92.96;98484.75;4958128;28;20035;-82
2021/03/01 01:52:16;;;;;;;40.10;16.52;;;;;;;-0.24;92.62;98482.13;4975656;28;20028;-83
2021/03/01 01:54:43;;;;;;;34.05;15.95;;;;;;;-0.20;93.52;98478.63;4991413;28;20034;-83
2021/03/01 01:57:08;;;;;;;33.42;15.05;;;;;;;-0.20;94.03;98472.47;4965290;28;20026;-82
2021/03/01 01:59:34;;;;;;;39.00;17.23;;;;;;;-0.38;93.56;98462.06;4988009;28;20030;-83
2021/03/01 02:02:01;;;;;;;36.45;16.70;;;;;;;-0.39;94.60;98468.19;4983949;28;20121;-83
2021/03/01 02:04:29;;;;;;;42.03;18.25;;;;;;;-0.32;94.16;98473.41;4992208;28;20049;-83
2021/03/01 02:06:57;;;;;;;41.72;18.98;;;;;;;-0.23;93.40;98473.38;4981787;28;20491;-83
2021/03/01 02:09:31;;;;;;;42.80;19.25;;;;;;;-0.16;92.62;98455.81;4974929;28;20115;-84
2021/03/01 02:12:10;;;;;;;46.83;20.02;;;;;;;-0.27;92.03;98453.22;4980252;28;20043;-82
2021/03/01 02:14:57;;;;;;;45.55;20.23;;;;;;;-0.25;92.01;98456.75;4984826;28;20030;-82
2021/03/01 02:17:23;;;;;;;42.67;19.73;;;;;;;-0.36;92.84;98444.50;4987131;28;20034;-82
2021/03/01 02:19:48;;;;;;;46.00;20.67;;;;;;;-0.30;93.61;98439.22;4975216;28;20046;-83
2021/03/01 02:22:14;;;;;;;42.45;19.98;;;;;;;-0.33;93.85;98439.25;4966069;28;20049;-82
2021/03/01 02:24:48;;;;;;;52.50;18.95;;;;;;;-0.35;94.60;98434.00;4963656;28;20042;-82
2021/03/01 02:27:19;;;;;;;46.10;19.65;;;;;;;-0.24;93.94;98441.81;4994769;28;20048;-82
2021/03/01 02:29:45;;;;;;;47.85;20.65;;;;;;;-0.33;93.76;98431.34;4970186;28;20038;-82
2021/03/01 02:32:11;;;;;;;42.03;21.17;;;;;;;-0.27;94.54;98432.22;4983357;28;20030;-82
2021/03/01 02:34:39;;;;;;;45.65;20.60;;;;;;;-0.25;93.65;98437.47;4982442;28;20029;-82
2021/03/01 02:37:17;;;;;;;50.70;21.33;;;;;;;-0.28;94.49;98437.50;4975205;28;20030;-82
2021/03/01 02:39:44;;;;;;;50.40;23.08;;;;;;;-0.33;94.40;98431.34;4958762;28;20054;-82
2021/03/01 02:42:13;;;;;;;53.67;23.33;;;;;;;-0.23;94.52;98435.69;4994267;28;20029;-82
2021/03/01 02:44:43;;;;;;;52.40;25.05;;;;;;;-0.25;94.02;98421.69;4995452;28;20034;-82
2021/03/01 02:47:11;;;;;;;57.53;24.52;;;;;;;-0.25;93.85;98434.84;4977384;28;20507;-82
2021/03/01 02:49:37;;;;;;;45.38;23.15;;;;;;;-0.29;94.43;98428.72;4994198;28;20448;-81
2021/03/01 02:52:03;;;;;;;53.15;23.23;;;;;;;-0.32;94.58;98426.13;4976953;28;20113;-82
2021/03/01 02:54:30;;;;;;;48.80;22.75;;;;;;;-0.33;94.29;98428.72;4994277;28;20052;-82
2021/03/01 02:56:56;;;;;;;35.97;17.40;;;;;;;-0.39;92.95;98424.38;4976959;28;20026;-82
2021/03/01 02:59:22;;;;;;;38.67;17.23;;;;;;;-0.36;92.32;98423.50;4966726;28;20034;-83
2021/03/01 03:01:48;;;;;;;38.10;18.33;;;;;;;-0.40;91.81;98427.88;4974765;28;20070;-83
2021/03/01 03:04:15;;;;;;;39.67;17.55;;;;;;;-0.48;92.73;98429.69;4983008;28;20030;-82
2021/03/01 03:06:41;;;;;;;33.33;16.95;;;;;;;-0.65;93.19;98421.88;4983011;28;20026;-83
2021/03/01 03:09:08;;;;;;;43.95;20.63;;;;;;;-0.59;92.84;98427.13;4960572;28;20421;-83
2021/03/01 03:11:34;;;;;;;47.47;21.67;;;;;;;-0.64;93.83;98421.00;4977919;28;20556;-81
2021/03/01 03:14:00;;;;;;;36.45;18.08;;;;;;;-0.59;93.44;98426.25;4993999;28;20431;-83
2021/03/01 03:16:27;;;;;;;41.33;19.33;;;;;;;-0.58;93.90;98428.84;4994088;28;20030;-82
2021/03/01 03:18:54;;;;;;;48.28;20.60;;;;;;;-0.59;93.88;98421.00;4961737;28;20049;-82
2021/03/01 03:21:21;;;;;;;41.28;18.73;;;;;;;-0.57;93.29;98409.59;4958342;28;20565;-82
2021/03/01 03:23:47;;;;;;;38.60;17.60;;;;;;;-0.46;93.73;98419.19;4982383;28;20059;-82
2021/03/01 03:26:13;;;;;;;39.33;19.90;;;;;;;-0.37;94.35;98433.13;4976386;28;20037;-83
2021/03/01 03:28:41;;;;;;;59.70;25.70;;;;;;;-0.41;93.81;98409.50;4971454;28;20034;-83
2021/03/01 03:31:07;;;;;;;42.35;18.15;;;;;;;-0.44;93.21;98426.16;4976149;28;20038;-82
2021/03/01 03:33:33;;;;;;;36.50;16.70;;;;;;;-0.51;93.01;98413.94;4988472;28;20077;-82
2021/03/01 03:35:58;;;;;;;35.05;17.25;;;;;;;-0.51;93.33;98418.31;4991057;28;20112;-83
2021/03/01 03:38:29;;;;;;;41.05;18.25;;;;;;;-0.55;93.36;98426.19;4982410;28;20496;-83
2021/03/01 03:41:00;;;;;;;54.90;22.48;;;;;;;-0.68;94.23;98421.88;4974338;28;20490;-83
2021/03/01 03:43:29;;;;;;;64.20;25.00;;;;;;;-0.71;95.29;98431.53;5002825;28;20026;-83
2021/03/01 03:45:59;;;;;;;57.53;24.98;;;;;;;-0.83;95.17;98437.69;4993668;28;20056;-82
2021/03/01 03:48:25;;;;;;;60.38;23.23;;;;;;;-0.76;96.14;98434.16;4977350;28;20034;-83
2021/03/01 03:50:53;;;;;;;49.92;23.77;;;;;;;-0.86;95.73;98436.84;4978027;28;20041;-84
2021/03/01 03:53:24;;;;;;;59.78;25.23;;;;;;;-0.94;96.35;98439.47;4973883;28;20033;-83
2021/03/01 03:55:51;;;;;;;57.88;25.15;;;;;;;-1.06;96.55;98443.88;4973641;28;20036;-83
2021/03/01 03:58:25;;;;;;;58.72;26.20;;;;;;;-0.96;96.25;98451.75;4977739;28;20034;-83
2021/03/01 04:00:52;;;;;;;53.97;24.20;;;;;;;-0.97;96.97;98463.09;4978123;28;20033;-82
2021/03/01 04:03:48;;;;;;;;;;;;;;;;;;;;;
2021/03/01 04:06:16;;;;;;;62.38;28.48;;;;;;;-1.00;96.37;98464.84;4996576;28;20494;-82
2021/03/01 04:08:43;;;;;;;55.35;25.25;;;;;;;-0.90;97.30;98464.84;4961603;28;20093;-82
2021/03/01 04:11:10;;;;;;;63.75;29.23;;;;;;;-0.84;98.02;98467.47;4971654;28;20052;-82
2021/03/01 04:13:36;;;;;;;67.43;27.85;;;;;;;-0.80;97.65;98482.31;4994695;28;20052;-84
2021/03/01 04:16:02;;;;;;;62.30;25.48;;;;;;;-0.92;96.09;98481.50;4984789;28;20109;-82
2021/03/01 04:18:33;;;;;;;56.55;26.33;;;;;;;-1.05;97.20;98483.25;4961225;28;20109;-81
2021/03/01 04:21:02;;;;;;;56.15;24.63;;;;;;;-0.94;97.01;98486.72;4997504;28;20064;-82
2021/03/01 04:23:28;;;;;;;63.03;25.45;;;;;;;-0.83;96.54;98495.44;4980474;28;20520;-84
2021/03/01 04:25:54;;;;;;;61.70;27.77;;;;;;;-1.02;94.51;98466.63;4993625;28;20033;-82
2021/03/01 04:28:20;;;;;;;54.58;23.40;;;;;;;-1.23;95.47;98485.91;4961103;28;20030;-84
2021/03/01 04:30:52;;;;;;;68.70;25.90;;;;;;;-1.14;95.85;98488.53;4995503;28;20053;-82
2021/03/01 04:33:18;;;;;;;49.90;22.02;;;;;;;-1.16;95.70;98485.00;4996837;28;20041;-83
2021/03/01 04:35:45;;;;;;;44.60;20.85;;;;;;;-1.13;95.86;98491.13;4988503;28;20027;-83
2021/03/01 04:38:11;;;;;;;56.88;23.20;;;;;;;-1.21;96.14;98481.50;4996851;28;20030;-82
2021/03/01 04:40:36;;;;;;;43.08;20.20;;;;;;;-1.22;96.79;98490.25;4988659;28;20408;-83
2021/03/01 04:43:02;;;;;;;39.20;16.77;;;;;;;-1.31;97.30;98479.75;4996475;28;20117;-83
2021/03/01 04:45:28;;;;;;;41.97;17.63;;;;;;;-1.37;97.52;98466.66;4996865;28;20073;-85
2021/03/01 04:47:54;;;;;;;40.83;18.88;;;;;;;-1.32;98.33;98473.63;4979171;28;20088;-86
2021/03/01 04:50:20;;;;;;;42.47;17.55;;;;;;;-1.20;98.02;98465.75;4992904;28;20021;-86
2021/03/01 04:52:46;;;;;;;35.63;16.98;;;;;;;-1.21;97.85;98471.91;4979192;28;20559;-82
2021/03/01 04:55:13;;;;;;;36.47;16.23;;;;;;;-1.11;98.25;98483.25;4960687;28;20018;-82
2021/03/01 04:57:39;;;;;;;42.72;19.33;;;;;;;-1.25;96.83;98479.75;4985064;28;20080;-83
2021/03/01 05:00:08;;;;;;;56.30;22.30;;;;;;;-1.14;96.53;98489.38;4996275;28;20473;-83
2021/03/01 05:02:34;;;;;;;42.58;19.73;;;;;;;-1.13;97.02;98483.25;4996077;28;20068;-82
2021/03/01 05:05:00;;;;;;;41.83;17.38;;;;;;;-1.16;96.76;98493.75;4995892;28;20088;-83
2021/03/01 05:07:28;;;;;;;40.70;18.80;;;;;;;-1.29;97.07;98472.78;4996049;28;20409;-82
2021/03/01 05:09:54;;;;;;;56.80;19.27;;;;;;;-1.31;97.60;98475.41;4987082;28;20037;-83
2021/03/01 05:12:20;;;;;;;47.17;21.08;;;;;;;-1.45;97.79;98455.28;4980262;28;20053;-82
2021/03/01 05:14:46;;;;;;;49.17;20.70;;;;;;;-1.41;97.61;98459.63;4996958;28;20026;-81
2021/03/01 05:17:11;;;;;;;50.50;21.63;;;;;;;-1.22;96.93;98467.50;4983606;28;20045;-81
2021/03/01 05:19:37;;;;;;;62.35;27.95;;;;;;;-1.24;96.72;98471.91;4976389;28;20026;-81
2021/03/01 05:22:03;;;;;;;53.30;22.88;;;;;;;-1.23;96.85;98451.78;4982187;28;20366;-83
2021/03/01 05:24:28;;;;;;;48.05;22.65;;;;;;;-1.05;96.52;98461.38;4997948;28;20104;-82
2021/03/01 05:26:54;;;;;;;57.80;24.85;;;;;;;-0.92;96.26;98468.38;4995509;28;20481;-80
2021/03/01 05:29:20;;;;;;;61.80;26.88;;;;;;;-0.50;95.12;98457.72;4982463;28;20062;-81
2021/03/01 05:31:45;;;;;;;56.55;25.13;;;;;;;-0.16;92.05;98447.94;4977176;28;20567;-77
2021/03/01 05:34:11;;;;;;;60.00;27.00;;;;;;;0.24;90.29;98462.59;4995329;28;20426;-76
2021/03/01 05:36:37;;;;;;;65.20;27.15;;;;;;;0.89;88.30;98461.22;5005734;28;20114;-73
2021/03/01 05:39:04;;;;;;;81.35;33.08;;;;;;;1.72;83.59;98460.31;4976120;28;20129;-74
2021/03/01 05:41:31;;;;;;;71.40;30.85;;;;;;;2.93;75.78;98460.25;4960053;28;20485;-75
2021/03/01 05:43:57;;;;;;;84.68;32.42;;;;;;;3.96;70.37;98459.16;4993956;28;20100;-80
2021/03/01 05:46:23;;;;;;;89.47;33.72;;;;;;;5.33;64.59;98467.31;4990184;28;20134;-79
2021/03/01 05:48:49;;;;;;;88.72;34.58;;;;;;;6.09;60.53;98467.91;4976197;28;20068;-79
2021/03/01 05:51:16;;;;;;;83.63;34.08;;;;;;;6.25;59.04;98463.84;4982538;28;20176;-79
2021/03/01 05:53:43;;;;;;;74.53;34.67;;;;;;;6.95;56.34;98460.72;4975476;28;20483;-80
2021/03/01 05:56:09;;;;;;;74.82;35.08;;;;;;;7.69;53.80;98467.91;4975500;28;20022;-80
2021/03/01 05:58:35;;;;;;;89.10;37.42;;;;;;;8.33;50.41;98463.78;4982235;28;20029;-80
2021/03/01 06:01:05;;;;;;;72.28;36.05;;;;;;;9.24;48.60;98476.09;4984480;28;20034;-79
2021/03/01 06:03:34;;;;;;;84.05;40.80;;;;;;;10.09;45.06;98467.91;4959221;28;20026;-79
2021/03/01 06:06:00;;;;;;;81.60;41.97;;;;;;;10.48;44.37;98465.25;4967109;28;20030;-79
2021/03/01 06:08:27;;;;;;;87.47;40.65;;;;;;;11.37;41.69;98466.19;4964438;28;20026;-78
2021/03/01 06:11:00;;;;;;;82.82;40.78;;;;;;;11.76;40.42;98479.41;4978683;28;20521;-79
2021/03/01 06:13:26;;;;;;;70.25;37.17;;;;;;;12.36;38.80;98485.16;4994677;28;20477;-78
2021/03/01 06:15:57;;;;;;;67.82;35.65;;;;;;;12.28;38.63;98480.19;4969560;28;20109;-80
2021/03/01 06:18:23;;;;;;;59.03;32.70;;;;;;;12.06;39.02;98501.06;4959166;28;20030;-79
2021/03/01 06:20:50;;;;;;;57.47;30.67;;;;;;;12.56;38.95;98489.41;4974793;28;20185;-79
2021/03/01 06:23:32;;;;;;;61.35;29.85;;;;;;;12.54;37.69;98491.34;4971616;28;20138;-78
2021/03/01 06:26:24;;;;;;;49.53;27.05;;;;;;;12.73;37.25;98509.03;4955419;28;20098;-80
2021/03/01 06:29:10;;;;;;;53.63;27.38;;;;;;;12.78;37.86;98500.72;4968155;28;20506;-79
2021/03/01 06:31:38;;;;;;;64.65;30.02;;;;;;;13.08;36.51;98504.41;4982544;28;20053;-79
2021/03/01 06:34:32;;;;;;;62.17;32.03;;;;;;;13.48;35.39;98514.59;4989376;28;20034;-79
2021/03/01 06:37:06;;;;;;;73.20;34.15;;;;;;;13.34;35.84;98519.91;4981719;28;20031;-78
2021/03/01 06:39:42;;;;;;;60.50;33.08;;;;;;;13.35;35.66;98524.31;4972778;28;20050;-78
2021/03/01 06:42:19;;;;;;;57.40;29.25;;;;;;;13.83;35.08;98530.50;4972982;28;20057;-78
2021/03/01 06:44:54;;;;;;;64.03;29.88;;;;;;;14.09;34.63;98532.47;4987299;28;20045;-79
2021/03/01 06:47:19;;;;;;;47.80;27.83;;;;;;;14.45;33.96;98535.66;4987538;28;20105;-79
2021/03/01 06:49:46;;;;;;;52.42;28.52;;;;;;;14.35;33.75;98522.84;4986635;28;20113;-79
2021/03/01 06:52:37;;;;;;;56.95;30.80;;;;;;;14.07;34.83;98539.78;4990514;28;20076;-79
2021/03/01 06:55:11;;;;;;;67.28;32.40;;;;;;;14.27;33.83;98525.13;4990657;28;20409;-79
2021/03/01 06:57:36;;;;;;;72.53;34.17;;;;;;;14.51;34.63;98523.66;4990947;28;20036;-79
2021/03/01 07:00:05;;;;;;;67.88;33.42;;;;;;;14.90;33.32;98528.34;4981734;28;20023;-78
2021/03/01 07:02:40;;;;;;;49.90;28.17;;;;;;;15.95;31.92;98523.16;4959882;28;20409;-78
2021/03/01 07:05:07;;;;;;;53.65;29.38;;;;;;;15.96;30.98;98518.63;4989233;28;20058;-79
2021/03/01 07:07:36;;;;;;;44.40;26.67;;;;;;;15.57;31.51;98504.16;4964927;28;20198;-78
2021/03/01 07:10:07;;;;;;;49.05;24.83;;;;;;;16.56;30.49;98513.53;4962965;28;20035;-78
2021/03/01 07:12:46;;;;;;;45.45;25.55;;;;;;;16.50;30.38;98506.69;4971708;28;20122;-78
2021/03/01 07:15:13;;;;;;;65.72;34.67;;;;;;;16.56;31.08;98514.41;4956939;28;20574;-79
2021/03/01 07:17:41;;;;;;;63.63;34.05;;;;;;;16.58;31.08;98508.91;5001217;28;20042;-78
2021/03/01 07:20:09;;;;;;;77.35;41.53;;;;;;;16.63;31.46;98504.03;4995138;28;20037;-78
2021/03/01 07:22:40;;;;;;;69.53;37.10;;;;;;;15.69;33.76;98521.34;4954779;28;20549;-79
2021/03/01 07:25:08;;;;;;;71.95;41.08;;;;;;;15.72;34.24;98538.19;4954881;28;20035;-79
2021/03/01 07:27:37;;;;;;;68.90;36.15;;;;;;;15.84;33.76;98541.91;4970941;28;20554;-78
2021/03/01 07:30:03;;;;;;;78.28;38.40;;;;;;;16.01;33.32;98538.06;4963009;28;20035;-80
2021/03/01 07:32:30;;;;;;;68.90;37.53;;;;;;;16.22;33.40;98536.59;4956676;28;20089;-80
2021/03/01 07:34:56;;;;;;;61.42;32.60;;;;;;;16.41;32.83;98533.47;4974346;28;20490;-79
2021/03/01 07:37:22;;;;;;;111.38;46.42;;;;;;;15.79;34.06;98543.16;4994174;28;20108;-79
2021/03/01 07:39:48;;;;;;;57.95;32.13;;;;;;;15.97;33.37;98531.13;4994103;28;20521;-79
2021/03/01 07:42:15;;;;;;;57.85;35.45;;;;;;;16.26;32.99;98540.81;4984194;28;20407;-78
2021/03/01 07:44:40;;;;;;;61.00;30.98;;;;;;;15.89;33.34;98541.59;4958479;28;20102;-78
2021/03/01 07:47:07;;;;;;;61.47;33.50;;;;;;;16.35;32.93;98542.88;4982695;28;20238;-79
2021/03/01 07:49:42;;;;;;;67.18;32.08;;;;;;;16.25;33.25;98553.44;4986925;28;20486;-78
2021/03/01 07:52:28;;;;;;;64.32;32.35;;;;;;;16.22;33.33;98536.59;4993790;28;20034;-78
2021/03/01 07:54:55;;;;;;;66.55;37.65;;;;;;;15.68;33.46;98534.00;4985780;28;20037;-78
2021/03/01 07:57:24;;;;;;;51.15;28.58;;;;;;;14.76;34.59;98529.25;4991516;28;20026;-78
2021/03/01 07:59:50;;;;;;;59.65;33.30;;;;;;;13.81;36.56;98543.16;4958359;28;20030;-78
2021/03/01 08:02:21;;;;;;;63.72;35.33;;;;;;;13.07;37.68;98540.25;4974558;28;20034;-78
2021/03/01 08:04:47;;;;;;;62.42;34.67;;;;;;;13.12;37.83;98537.34;4972224;28;20453;-78
2021/03/01 08:07:13;;;;;;;67.55;35.20;;;;;;;12.83;38.29;98530.84;4985508;28;20038;-78
2021/03/01 08:10:08;;;;;;;63.63;34.78;;;;;;;13.27;37.71;98548.09;4993820;28;20038;-77
2021/03/01 08:12:34;;;;;;;67.75;35.08;;;;;;;14.49;35.81;98553.34;4973431;28;20523;-78
2021/03/01 08:15:03;;;;;;;55.10;29.90;;;;;;;16.35;33.10;98526.69;4982570;28;20048;-78
2021/03/01 08:17:37;;;;;;;53.38;27.55;;;;;;;17.99;31.10;98522.78;4985622;28;20121;-78
2021/03/01 08:20:11;;;;;;;47.95;26.08;;;;;;;18.64;29.19;98513.13;4993372;28;20042;-78
2021/03/01 08:23:05;;;;;;;57.50;26.10;;;;;;;18.48;28.61;98504.47;4993246;28;20045;-78
2021/03/01 08:25:43;;;;;;;58.25;30.60;;;;;;;18.33;29.29;98508.38;4996220;28;20034;-78
2021/03/01 08:28:31;;;;;;;64.05;31.75;;;;;;;19.29;29.46;98499.69;4996325;28;20117;-78
2021/03/01 08:31:18;;;;;;;36.35;20.30;;;;;;;20.08;27.57;98492.19;4977560;28;20045;-78
2021/03/01 08:33:45;;;;;;;44.45;23.60;;;;;;;20.87;25.98;98497.00;4996547;28;20482;-78
2021/03/01 08:36:10;;;;;;;38.35;22.27;;;;;;;20.94;26.99;98493.63;4996394;28;20022;-79
2021/03/01 08:38:45;;;;;;;23.65;15.30;;;;;;;22.11;23.92;98491.94;4996329;28;20033;-77
2021/03/01 08:41:13;;;;;;;24.08;13.68;;;;;;;22.31;24.15;98492.78;4992994;28;20525;-79
2021/03/01 08:46:24;;;;;;;16.95;9.57;;;;;;;21.72;23.43;98481.97;4979456;28;20118;-79
2021/03/01 08:48:53;;;;;;;16.20;9.68;;;;;;;20.34;24.22;98482.69;4986855;28;20109;-78
2021/03/01 08:51:19;;;;;;;25.15;10.52;;;;;;;18.55;27.31;98492.16;4977521;28;20034;-77
2021/03/01 08:53:45;;;;;;;24.63;9.48;;;;;;;17.93;28.00;98498.88;4996231;28;20029;-78
2021/03/01 08:56:24;;;;;;;17.23;9.70;;;;;;;16.90;29.46;98506.59;4972044;28;20072;-78
2021/03/01 08:58:49;;;;;;;18.02;11.02;;;;;;;16.86;30.35;98519.44;4981801;28;20029;-78
2021/03/01 09:01:15;;;;;;;19.40;9.70;;;;;;;17.19;30.56;98526.97;4987630;28;20044;-78
2021/03/01 09:03:42;;;;;;;25.35;12.90;;;;;;;18.04;29.06;98523.28;4984829;28;20394;-78
2021/03/01 09:06:15;;;;;;;26.30;10.20;;;;;;;18.63;27.34;98513.25;5003912;28;20405;-78
2021/03/01 09:08:42;;;;;;;20.67;10.65;;;;;;;20.10;25.94;98522.78;4996109;28;20030;-79
2021/03/01 09:11:24;;;;;;;23.10;8.90;;;;;;;20.05;26.08;98519.63;4971765;28;20457;-78
2021/03/01 09:14:11;;;;;;;13.00;8.38;;;;;;;19.57;26.09;98502.84;4976713;28;20045;-78
2021/03/01 09:16:40;;;;;;;13.93;8.95;;;;;;;21.26;25.19;98517.09;4991927;28;20069;-78
2021/03/01 09:19:13;;;;;;;14.02;8.77;;;;;;;22.01;22.82;98504.69;4987792;28;20070;-79
2021/03/01 09:21:42;;;;;;;14.95;8.57;;;;;;;20.38;24.92;98506.75;5012958;28;20030;-78
2021/03/01 09:24:12;;;;;;;25.70;11.23;;;;;;;21.28;24.05;98509.69;4980625;28;20058;-78
2021/03/01 09:26:40;;;;;;;15.23;9.27;;;;;;;21.43;24.23;98506.44;4970603;28;20033;-79
2021/03/01 09:29:24;;;;;;;18.75;11.32;;;;;;;22.26;23.03;98510.56;4979322;28;20087;-78
2021/03/01 09:31:53;;;;;;;23.15;11.38;;;;;;;21.68;23.52;98499.63;4995774;28;20117;-78
2021/03/01 09:34:21;;;;;;;16.48;8.63;;;;;;;21.16;24.08;98503.50;4995559;28;20181;-78
2021/03/01 09:36:50;;;;;;;15.98;8.43;;;;;;;20.02;25.24;98499.88;4983660;28;20053;-79
2021/03/01 09:39:18;;;;;;;14.52;9.45;;;;;;;19.03;26.74;98509.09;4976555;28;20092;-78
2021/03/01 09:41:45;;;;;;;116.53;14.50;;;;;;;18.68;26.45;98511.03;4979371;28;20033;-78
2021/03/01 09:44:11;;;;;;;19.85;10.73;;;;;;;18.22;27.41;98511.91;4995617;28;20026;-79
2021/03/01 09:46:37;;;;;;;50.83;23.55;;;;;;;18.65;27.13;98514.00;4986832;28;20130;-78
2021/03/01 09:49:04;;;;;;;22.55;11.95;;;;;;;18.51;27.07;98517.81;4981678;28;20026;-78
2021/03/01 09:51:31;;;;;;;18.80;8.80;;;;;;;17.12;28.74;98517.56;4960568;28;20038;-78
2021/03/01 09:54:04;;;;;;;19.65;7.70;;;;;;;16.07;30.38;98522.31;4979087;28;20037;-77
2021/03/01 09:56:52;;;;;;;33.05;11.48;;;;;;;15.97;31.27;98520.34;4994633;28;20033;-77
2021/03/01 09:59:30;;;;;;;34.38;11.25;;;;;;;15.61;31.85;98526.38;4979501;28;20397;-78
2021/03/01 10:02:14;;;;;;;21.33;10.88;;;;;;;14.97;32.41;98525.19;4982464;28;20033;-78
2021/03/01 10:04:40;;;;;;;33.28;13.25;;;;;;;14.79;32.77;98541.63;4992596;28;20030;-77
2021/03/01 10:07:15;;;;;;;40.75;10.77;;;;;;;14.01;33.90;98540.16;4964843;28;20113;-77
2021/03/01 10:09:40;;;;;;;27.02;11.02;;;;;;;13.78;34.39;98546.03;4999361;28;20189;-77
2021/03/01 10:12:06;;;;;;;31.08;10.98;;;;;;;13.08;35.38;98536.63;4983389;28;20034;-78
2021/03/01 10:14:32;;;;;;;21.65;11.48;;;;;;;12.84;35.77;98548.72;4958970;28;20057;-77
2021/03/01 10:16:57;;;;;;;19.77;11.15;;;;;;;12.60;36.54;98561.66;4959144;28;20113;-77
2021/03/01 10:19:23;;;;;;;27.55;12.05;;;;;;;12.43;36.89;98554.50;4974963;28;20030;-77
2021/03/01 10:21:50;;;;;;;31.80;11.25;;;;;;;12.30;37.60;98564.16;4983357;28;20037;-77
2021/03/01 10:24:18;;;;;;;21.73;8.98;;;;;;;12.24;37.86;98574.34;4983180;28;20038;-77
2021/03/01 10:26:56;;;;;;;31.02;10.77;;;;;;;12.59;37.29;98573.34;4974881;28;20026;-76
2021/03/01 10:29:34;;;;;;;33.22;13.95;;;;;;;12.92;36.97;98573.34;4958911;28;20510;-77
2021/03/01 10:32:01;;;;;;;35.05;11.40;;;;;;;12.93;37.19;98572.38;4992605;28;20056;-77
2021/03/01 10:34:36;;;;;;;19.67;12.45;;;;;;;13.41;36.86;98566.97;4971741;28;20096;-77
2021/03/01 10:37:02;;;;;;;26.50;12.75;;;;;;;12.89;37.51;98565.44;4963777;28;20025;-77
2021/03/01 10:39:36;;;;;;;21.92;9.68;;;;;;;13.10;36.58;98556.25;4977911;28;20049;-77
2021/03/01 10:42:03;;;;;;;14.48;7.47;;;;;;;12.57;37.73;98567.19;4994510;28;20022;-77
2021/03/01 10:44:35;;;;;;;21.80;8.93;;;;;;;12.22;38.58;98565.50;4974749;28;20113;-78
2021/03/01 10:47:21;;;;;;;13.33;8.23;;;;;;;12.38;38.54;98559.25;5002763;28;20049;-78
2021/03/01 10:50:16;;;;;;;20.50;9.63;;;;;;;12.15;38.62;98558.72;4977667;28;20064;-77
2021/03/01 10:52:42;;;;;;;23.98;10.52;;;;;;;11.88;39.56;98564.56;4979803;28;20133;-77
2021/03/01 10:55:08;;;;;;;19.95;8.70;;;;;;;11.44;39.57;98572.09;4975088;28;20018;-78
2021/03/01 10:57:34;;;;;;;28.95;12.60;;;;;;;11.08;40.98;98570.31;4991212;28;20449;-77
2021/03/01 11:00:00;;;;;;;21.88;9.20;;;;;;;10.82;42.30;98580.47;4994128;28;20029;-77
2021/03/01 11:02:25;;;;;;;27.10;10.85;;;;;;;10.53;43.07;98586.25;4993933;28;20032;-77
2021/03/01 11:04:51;;;;;;;20.38;11.88;;;;;;;10.47;43.73;98578.53;4983225;28;20034;-79
2021/03/01 11:07:17;;;;;;;31.00;14.50;;;;;;;10.51;44.29;98587.28;4957724;28;20113;-77
2021/03/01 11:09:43;;;;;;;28.15;13.73;;;;;;;10.07;45.93;98579.38;4974102;28;20116;-79
2021/03/01 11:12:09;;;;;;;29.90;16.15;;;;;;;10.10;47.63;98573.03;4974620;28;20076;-79
2021/03/01 11:14:35;;;;;;;19.65;8.98;;;;;;;9.87;48.16;98566.00;4966381;28;20026;-79
2021/03/01 11:17:01;;;;;;;19.73;9.18;;;;;;;9.85;49.44;98573.22;4965872;28;20027;-78
2021/03/01 11:19:27;;;;;;;13.70;8.45;;;;;;;9.42;50.95;98568.78;4974613;28;20564;-78
2021/03/01 11:21:52;;;;;;;27.85;11.77;;;;;;;9.53;51.95;98565.69;4990682;28;20038;-78
2021/03/01 11:24:21;;;;;;;21.80;11.73;;;;;;;9.67;51.54;98576.66;4988244;28;20502;-78
2021/03/01 11:26:47;;;;;;;31.58;12.63;;;;;;;10.03;50.70;98568.91;4993738;28;20589;-78
2021/03/01 11:29:12;;;;;;;22.80;12.50;;;;;;;9.98;50.34;98569.09;4977399;28;20117;-77
2021/03/01 11:31:38;;;;;;;22.02;11.73;;;;;;;9.91;50.76;98570.28;4977301;28;20060;-77